Seymour, TX (76380)

5:54 AM CST on February 09, 2016 (GMT -0600)
Rhineland | | Change Station
CLOSE
Current Station
Personal Weather Station
Location: Munday, TX
Elevation: 1413 ft
Nearby Weather Stations

Elev 1413 ft 33.56 °N, 99.68 °W | Updated 4 minutes ago

Clear
Clear
30.7 °F
Feels Like 27 °F
N
4.0
Wind Variable Wind from SW
Gusts 7.0 mph

Today
High -- | Low -- °F
--% Chance of Precip.
Yesterday
High -- | Low -- °F
Precip. -- in
Pressure 30.31 in
Visibility 10.0 miles
Clouds Clear
Windchill 27 °F
Dew Point 23 °F
Humidity 73%
Rainfall 0.00 in
Snow Depth Not available.
7:27 AM 6:15 PM
New Moon, 1% visible
METAR KF05 091135Z AUTO 27005KT 10SM CLR 00/M07 A3031 RMK AO1 T00031075
Pressure 30.31 in
Visibility 10.0 miles
Clouds Clear
Windchill 27 °F
Dew Point 23 °F
Humidity 73%
Rainfall 0.00 in
Snow Depth Not available.
7:27 AM 6:15 PM
New Moon, 1% visible
METAR KF05 091135Z AUTO 27005KT 10SM CLR 00/M07 A3031 RMK AO1 T00031075

10-Day Weather Forecast

Almanac

Astronomy

Feb. 09, 2016 Rise Set
Actual Time
Civil Twilight
Nautical Twilight
Astronomical Twilight
Moon
Length of Visible Light
Length of Day
Tomorrow will be .
, % of the Moon is Illuminated

Today's Extremes

State Highs State Lows

Community

WunderPhotos

Upload Photos

1,891,565 photos uploaded!

WunderBlog® & News

Nearby

Air Quality

  Air Quality AQ Index Pollutant
Not available.

Snow Depth

Station Depth Elevation

Earthquake Activity

City Distance Mag. Time & Date
Minimum magnitude displayed is 2.5.

Coastal Water Temperatures

Place Temperature

Stations

Nearby Weather Stations

Station Location Temp. Windchill Dew Point Humidity Wind Precip. Elev Updated Type
                   

Watches & Warnings

There are currently no watches in effect.